Time;durP1;ratioP1;P1;durP2;ratioP2;P2;SDS_P1;SDS_P2;PMS_P1;PMS_P2;Temp;Humidity;BMP_temperature;BMP_pressure;BME280_temperature;BME280_humidity;BME280_pressure;Samples;Min_cycle;Max_cycle;Signal;HPM_P1;HPM_P2
2024/01/02 00:01:10;;;;;;;9.30;4.50;;;;;;;4.00;87.72;98155.61;226534;1274;22529;-76
2024/01/02 00:06:16;;;;;;;13.10;4.80;;;;;;;4.02;87.59;98156.23;226460;1274;22538;-76
2024/01/02 00:11:19;;;;;;;9.10;4.10;;;;;;;4.04;87.80;98160.98;226547;1269;22565;-76
2024/01/02 00:16:21;;;;;;;11.10;3.80;;;;;;;4.05;87.73;98161.08;226501;1272;23269;-76
2024/01/02 00:21:23;;;;;;;8.20;3.50;;;;;;;4.04;87.60;98157.55;226504;1271;24209;-75
2024/01/02 00:26:26;;;;;;;10.10;4.70;;;;;;;4.02;87.71;98154.80;226508;1274;22545;-75
2024/01/02 00:31:28;;;;;;;9.50;3.80;;;;;;;4.00;87.55;98154.68;226448;1270;25294;-76
2024/01/02 00:36:31;;;;;;;8.70;3.70;;;;;;;3.97;87.74;98156.94;226559;1273;22551;-76
2024/01/02 00:41:33;;;;;;;8.80;3.80;;;;;;;3.93;87.72;98158.59;226529;1271;22544;-76
2024/01/02 00:46:35;;;;;;;7.70;3.10;;;;;;;3.88;87.43;98159.91;226534;1263;22534;-76
2024/01/02 00:51:37;;;;;;;5.90;3.20;;;;;;;3.85;87.76;98159.77;226453;1269;22543;-76
2024/01/02 00:56:39;;;;;;;8.40;2.90;;;;;;;3.82;88.09;98165.27;226468;1273;22544;-76
2024/01/02 01:01:41;;;;;;;6.00;2.70;;;;;;;3.80;87.88;98165.69;226502;1272;22570;-77
2024/01/02 01:06:43;;;;;;;10.20;3.10;;;;;;;3.77;87.75;98166.33;226453;1272;22531;-77
2024/01/02 01:11:46;;;;;;;6.70;2.50;;;;;;;3.75;87.50;98166.98;226425;1272;22545;-77
2024/01/02 01:16:48;;;;;;;5.10;2.70;;;;;;;3.76;88.25;98165.94;226518;1272;22551;-76
2024/01/02 01:21:51;;;;;;;5.00;2.10;;;;;;;3.76;87.82;98164.48;226457;1272;22533;-77
2024/01/02 01:26:53;;;;;;;5.40;2.50;;;;;;;3.78;88.18;98164.45;226491;1270;22549;-77
2024/01/02 01:31:55;;;;;;;4.60;2.20;;;;;;;3.78;87.94;98159.88;226586;1273;22574;-76
2024/01/02 01:36:57;;;;;;;6.60;2.20;;;;;;;3.78;88.11;98155.73;226584;1274;22548;-76
2024/01/02 01:41:59;;;;;;;4.70;2.40;;;;;;;3.78;88.25;98160.81;226545;1272;22544;-76
2024/01/02 01:47:04;;;;;;;5.20;2.50;;;;;;;3.78;88.47;98163.27;226480;1274;22646;-77
2024/01/02 01:52:08;;;;;;;5.70;2.50;;;;;;;3.79;88.81;98162.03;226503;1274;24944;-77
2024/01/02 01:57:11;;;;;;;6.40;2.10;;;;;;;3.82;88.66;98154.27;226593;1272;22539;-76
2024/01/02 02:02:14;;;;;;;5.00;2.30;;;;;;;3.82;88.78;98151.11;226535;1256;22528;-77
2024/01/02 02:07:16;;;;;;;4.60;1.90;;;;;;;3.82;88.94;98154.86;226536;1274;22554;-77
2024/01/02 02:12:23;;;;;;;4.70;2.00;;;;;;;3.82;88.78;98154.60;226435;1272;23271;-75
2024/01/02 02:17:28;;;;;;;5.80;2.30;;;;;;;3.84;88.88;98157.93;226409;1274;22539;-75
2024/01/02 02:22:47;;;;;;;4.90;2.00;;;;;;;3.86;88.89;98158.17;226558;1272;22537;-75
2024/01/02 02:27:49;;;;;;;7.60;2.60;;;;;;;3.87;88.87;98156.91;226535;1271;24198;-75
2024/01/02 02:32:51;;;;;;;6.80;2.90;;;;;;;3.85;88.91;98150.52;226408;1273;22645;-77
2024/01/02 02:37:56;;;;;;;4.30;2.60;;;;;;;3.82;88.86;98158.16;226493;1273;24650;-77
2024/01/02 02:42:58;;;;;;;6.90;3.30;;;;;;;3.76;88.66;98161.86;226422;1269;22527;-77
2024/01/02 02:48:01;;;;;;;7.80;4.30;;;;;;;3.70;89.13;98159.55;226469;1273;22692;-77
2024/01/02 02:53:04;;;;;;;6.30;3.00;;;;;;;3.62;88.69;98166.55;226463;1269;23015;-78
2024/01/02 02:58:06;;;;;;;8.00;3.10;;;;;;;3.50;88.76;98164.05;226395;1274;22561;-77
2024/01/02 03:03:09;;;;;;;7.50;2.60;;;;;;;3.42;88.80;98163.56;226297;1273;22522;-77
2024/01/02 03:08:11;;;;;;;6.80;2.60;;;;;;;3.36;88.68;98158.98;226403;1269;22546;-77
2024/01/02 03:13:14;;;;;;;8.10;3.00;;;;;;;3.29;89.05;98155.83;226522;1273;22533;-77
2024/01/02 03:18:16;;;;;;;8.00;3.60;;;;;;;3.22;89.02;98148.55;226503;1274;22605;-77
2024/01/02 03:23:19;;;;;;;8.70;3.10;;;;;;;3.17;88.83;98150.57;226387;1273;23428;-77
2024/01/02 03:28:21;;;;;;;8.70;2.50;;;;;;;3.15;89.00;98150.23;226461;1273;26382;-77
2024/01/02 03:33:23;;;;;;;7.20;2.50;;;;;;;3.17;89.13;98153.08;226497;1272;22563;-75
2024/01/02 03:38:25;;;;;;;8.50;3.00;;;;;;;3.19;89.12;98155.09;226421;1269;22541;-77
2024/01/02 03:43:27;;;;;;;7.80;3.60;;;;;;;3.22;89.33;98155.17;226434;1272;22552;-75
2024/01/02 03:48:30;;;;;;;9.00;4.30;;;;;;;3.24;89.17;98159.36;226405;1274;22532;-75
2024/01/02 03:53:32;;;;;;;7.30;3.40;;;;;;;3.26;89.19;98165.88;226362;1273;22541;-75
2024/01/02 03:58:34;;;;;;;8.80;3.30;;;;;;;3.31;89.17;98167.95;226230;1273;22544;-75
2024/01/02 04:03:36;;;;;;;6.60;3.30;;;;;;;3.35;89.22;98164.39;226279;1273;22601;-75
2024/01/02 04:08:38;;;;;;;13.00;3.80;;;;;;;3.40;89.02;98165.35;226454;1272;22527;-75
2024/01/02 04:13:40;;;;;;;9.90;3.70;;;;;;;3.41;88.94;98164.46;226456;1272;22533;-75
2024/01/02 04:18:44;;;;;;;19.40;10.50;;;;;;;3.41;88.95;98161.40;226450;1272;22543;-75
2024/01/02 04:23:47;;;;;;;10.20;3.30;;;;;;;3.35;88.48;98155.86;226544;1268;25291;-75
2024/01/02 04:28:49;;;;;;;12.30;3.60;;;;;;;3.26;88.65;98149.54;226447;1272;22643;-75
2024/01/02 04:33:51;;;;;;;6.50;3.10;;;;;;;3.15;88.45;98147.46;226391;1274;22553;-76
2024/01/02 04:38:53;;;;;;;8.40;3.90;;;;;;;3.04;88.54;98145.13;226499;1273;22558;-76
2024/01/02 04:43:55;;;;;;;9.80;3.60;;;;;;;2.92;88.36;98143.15;226405;1273;22554;-76
2024/01/02 04:48:57;;;;;;;7.20;3.90;;;;;;;2.81;88.68;98150.65;226528;1274;22548;-76
2024/01/02 04:54:00;;;;;;;11.90;4.20;;;;;;;2.76;88.46;98148.67;226467;1272;22591;-76
2024/01/02 04:59:03;;;;;;;10.50;4.10;;;;;;;2.73;88.81;98147.24;226431;1272;22538;-76
2024/01/02 05:04:05;;;;;;;8.40;3.70;;;;;;;2.69;88.53;98144.54;226427;1274;22534;-76
2024/01/02 05:09:08;;;;;;;9.70;4.00;;;;;;;2.62;88.77;98141.61;226523;1269;22638;-76
2024/01/02 05:14:10;;;;;;;11.50;4.50;;;;;;;2.53;88.68;98142.02;226587;1273;22534;-76
2024/01/02 05:19:13;;;;;;;13.30;3.90;;;;;;;2.44;88.83;98139.73;226471;1272;22547;-76
2024/01/02 05:24:15;;;;;;;14.50;4.00;;;;;;;2.36;88.86;98139.05;226520;1274;22537;-76
2024/01/02 05:29:17;;;;;;;8.80;3.70;;;;;;;2.27;88.76;98140.77;226533;1274;22546;-76
2024/01/02 05:34:19;;;;;;;12.60;4.50;;;;;;;2.18;88.93;98139.80;226513;1274;22553;-76
2024/01/02 05:39:21;;;;;;;10.40;5.20;;;;;;;2.07;88.85;98144.79;226538;1250;22556;-76
2024/01/02 05:44:23;;;;;;;9.80;5.10;;;;;;;1.99;88.88;98150.87;226335;1274;22551;-76
2024/01/02 05:49:25;;;;;;;11.50;5.40;;;;;;;1.90;88.96;98149.84;226381;1273;24219;-76
2024/01/02 05:54:28;;;;;;;11.40;5.40;;;;;;;1.83;88.99;98151.73;226386;1274;22544;-76
2024/01/02 05:59:30;;;;;;;12.80;5.90;;;;;;;1.78;88.98;98150.64;226481;1273;22547;-76
2024/01/02 06:04:32;;;;;;;15.50;6.00;;;;;;;1.73;89.34;98155.81;226485;1274;22573;-76
2024/01/02 06:09:34;;;;;;;15.90;8.90;;;;;;;1.67;89.19;98153.10;226436;1274;22548;-76
2024/01/02 06:14:37;;;;;;;21.00;11.10;;;;;;;1.59;89.15;98152.80;226394;1274;22642;-77
2024/01/02 06:19:39;;;;;;;20.90;11.40;;;;;;;1.49;89.11;98153.09;226436;1272;22542;-76
2024/01/02 06:24:41;;;;;;;25.40;15.80;;;;;;;1.38;89.18;98150.81;226575;1272;22967;-76
2024/01/02 06:29:44;;;;;;;24.50;14.70;;;;;;;1.28;89.38;98146.77;226512;1270;22556;-76
2024/01/02 06:34:50;;;;;;;28.60;15.50;;;;;;;1.19;89.34;98151.64;226541;1273;22673;-77
2024/01/02 06:39:52;;;;;;;24.50;15.20;;;;;;;1.12;89.42;98147.11;226370;1272;24608;-76
2024/01/02 06:44:54;;;;;;;24.30;12.20;;;;;;;1.06;89.49;98145.73;226501;1273;22570;-76
2024/01/02 06:49:56;;;;;;;21.40;12.20;;;;;;;1.04;89.55;98148.03;226151;1251;25362;-76
2024/01/02 06:54:58;;;;;;;23.90;14.00;;;;;;;1.02;89.72;98146.79;226271;1260;22548;-76
2024/01/02 07:00:00;;;;;;;49.10;29.50;;;;;;;1.02;89.79;98153.61;226177;1257;22582;-81
2024/01/02 07:05:03;;;;;;;28.10;16.70;;;;;;;1.02;89.92;98152.70;226058;1251;22540;-77
2024/01/02 07:10:06;;;;;;;23.00;14.80;;;;;;;1.02;89.78;98150.41;226287;1256;22544;-76
2024/01/02 07:15:09;;;;;;;31.20;18.10;;;;;;;1.04;89.93;98149.17;227224;1261;22540;-75
2024/01/02 07:20:12;;;;;;;28.50;17.60;;;;;;;1.10;89.87;98147.86;226127;1256;24258;-75
2024/01/02 07:25:14;;;;;;;25.80;16.50;;;;;;;1.14;89.80;98139.48;225837;1260;24895;-75
2024/01/02 07:30:17;;;;;;;32.20;16.80;;;;;;;1.20;90.02;98127.09;225857;1259;22570;-75
2024/01/02 07:35:19;;;;;;;29.20;17.70;;;;;;;1.27;89.73;98118.32;225817;1258;22570;-74
2024/01/02 07:40:21;;;;;;;31.50;20.50;;;;;;;1.34;90.00;98108.90;225854;1267;22611;-74
2024/01/02 07:45:23;;;;;;;33.00;21.40;;;;;;;1.41;89.91;98097.65;225699;1267;22623;-75
2024/01/02 07:50:25;;;;;;;38.90;21.50;;;;;;;1.48;89.83;98095.94;225766;1251;22596;-75
2024/01/02 07:55:27;;;;;;;28.40;16.40;;;;;;;1.55;89.90;98093.56;225861;1261;22558;-74
2024/01/02 08:00:29;;;;;;;28.00;14.70;;;;;;;1.65;89.99;98099.48;226039;1250;22557;-75
2024/01/02 08:05:31;;;;;;;29.10;13.80;;;;;;;1.80;90.15;98091.42;226033;1250;22617;-74
2024/01/02 08:10:33;;;;;;;22.70;12.60;;;;;;;1.97;90.11;98089.88;226143;1251;22559;-75
2024/01/02 08:15:36;;;;;;;23.00;13.30;;;;;;;2.13;89.95;98081.33;226181;1266;22541;-75
2024/01/02 08:20:43;;;;;;;18.70;10.40;;;;;;;2.33;89.88;98073.31;226104;1251;22555;-75
2024/01/02 08:25:45;;;;;;;19.60;10.40;;;;;;;2.52;89.72;98073.83;225753;1255;22555;-75
2024/01/02 08:30:47;;;;;;;19.50;10.10;;;;;;;2.66;89.59;98076.87;225934;1260;22546;-75
2024/01/02 08:35:50;;;;;;;17.90;8.60;;;;;;;2.81;89.20;98071.52;225723;1260;23459;-76
2024/01/02 08:40:56;;;;;;;18.90;10.40;;;;;;;2.98;89.09;98060.11;225998;1260;22995;-76
2024/01/02 08:45:59;;;;;;;12.80;6.60;;;;;;;3.13;88.98;98054.79;225725;1267;22577;-75
2024/01/02 08:51:01;;;;;;;15.90;7.10;;;;;;;3.29;88.60;98058.92;226001;1250;22558;-77
2024/01/02 08:56:04;;;;;;;11.80;6.30;;;;;;;3.44;88.64;98062.34;225991;1263;22564;-75
2024/01/02 09:01:11;;;;;;;14.30;6.40;;;;;;;3.59;88.61;98066.77;226217;1267;22607;-75
2024/01/02 09:06:17;;;;;;;12.70;5.10;;;;;;;3.72;87.95;98064.45;226148;1251;22532;-76
2024/01/02 09:11:20;;;;;;;10.00;4.70;;;;;;;3.84;88.14;98054.95;226604;1270;22533;-75
2024/01/02 09:16:31;;;;;;;11.20;4.40;;;;;;;3.97;87.75;98052.04;226257;1268;22541;-76
2024/01/02 09:21:33;;;;;;;13.60;5.20;;;;;;;4.09;87.36;98045.89;226244;1267;22968;-74
2024/01/02 09:26:39;;;;;;;9.50;4.80;;;;;;;4.20;87.22;98039.89;226050;1260;22606;-77
2024/01/02 09:31:43;;;;;;;12.90;5.60;;;;;;;4.31;87.17;98034.34;226090;1274;23079;-76
2024/01/02 09:36:52;;;;;;;14.20;5.70;;;;;;;4.42;87.16;98032.02;225920;1270;22625;-76
2024/01/02 09:42:09;;;;;;;12.80;5.40;;;;;;;4.48;86.48;98023.22;226062;1259;22602;-78
2024/01/02 09:47:29;;;;;;;10.00;5.00;;;;;;;4.59;86.52;98019.46;225957;1251;23616;-76
2024/01/02 09:52:57;;;;;;;14.00;5.50;;;;;;;4.67;85.99;98013.48;226126;1267;22559;-75
2024/01/02 09:58:19;;;;;;;10.80;4.80;;;;;;;4.79;86.04;97998.52;226344;1273;22576;-76
2024/01/02 10:04:01;;;;;;;11.00;4.80;;;;;;;4.93;85.67;97986.46;226300;1251;22544;-75
2024/01/02 10:09:38;;;;;;;8.10;4.10;;;;;;;5.01;85.37;97970.52;226262;1267;22540;-76
2024/01/02 10:14:56;;;;;;;12.80;5.30;;;;;;;5.06;85.20;97960.95;226025;1267;22533;-74
2024/01/02 10:20:22;;;;;;;11.60;5.40;;;;;;;5.17;85.28;97956.77;226147;1267;22572;-75
2024/01/02 10:25:25;;;;;;;13.00;5.40;;;;;;;5.28;85.28;97946.23;226063;1267;22562;-76
2024/01/02 10:30:35;;;;;;;12.90;4.90;;;;;;;5.39;84.66;97935.86;225809;1250;22588;-76
2024/01/02 10:35:53;;;;;;;11.00;4.90;;;;;;;5.49;84.80;97917.45;226689;1265;22571;-75
2024/01/02 10:41:17;;;;;;;12.20;5.10;;;;;;;5.56;84.51;97903.02;225953;1270;22695;-77
2024/01/02 10:46:29;;;;;;;11.50;4.60;;;;;;;5.59;83.85;97894.21;225719;1253;22547;-77
2024/01/02 10:51:41;;;;;;;11.10;5.00;;;;;;;5.64;84.08;97887.02;225888;1260;22559;-77
2024/01/02 10:56:57;;;;;;;12.70;5.50;;;;;;;5.73;84.08;97876.31;225797;1259;24612;-77
2024/01/02 11:02:27;;;;;;;13.70;5.60;;;;;;;5.82;83.94;97868.30;226126;1266;22637;-75
2024/01/02 11:07:35;;;;;;;13.60;6.00;;;;;;;5.85;83.47;97854.54;226179;1264;22566;-75
2024/01/02 11:12:52;;;;;;;14.70;6.20;;;;;;;5.90;83.64;97841.98;226261;1266;22614;-75
2024/01/02 11:17:59;;;;;;;16.30;6.90;;;;;;;5.98;83.92;97831.96;226083;1263;22944;-76
2024/01/02 11:23:11;;;;;;;11.10;5.90;;;;;;;6.01;83.18;97827.45;226022;1272;23057;-75
2024/01/02 11:28:16;;;;;;;11.90;5.10;;;;;;;6.05;82.74;97812.17;225965;1267;150380;-75
2024/01/02 11:33:35;;;;;;;11.20;5.70;;;;;;;6.07;82.67;97805.38;226131;1266;22534;-75
2024/01/02 11:39:05;;;;;;;13.80;6.00;;;;;;;6.11;82.35;97797.62;226067;1267;22664;-74
2024/01/02 11:44:52;;;;;;;11.10;4.90;;;;;;;6.11;81.96;97794.48;225958;1269;24500;-72
2024/01/02 11:50:01;;;;;;;12.80;4.60;;;;;;;6.10;82.13;97800.11;226101;1261;24221;-75
2024/01/02 11:55:12;;;;;;;11.50;4.70;;;;;;;6.06;81.55;97797.34;225972;1250;23058;-74
2024/01/02 12:00:23;;;;;;;10.70;4.20;;;;;;;6.02;81.46;97785.59;227177;1267;23038;-76
2024/01/02 12:05:39;;;;;;;9.30;3.50;;;;;;;6.00;81.16;97780.73;225914;1267;22587;-76
2024/01/02 12:10:48;;;;;;;9.90;3.00;;;;;;;5.98;80.44;97782.98;225901;1266;22547;-76
2024/01/02 12:15:59;;;;;;;7.40;2.10;;;;;;;5.94;80.96;97777.06;228042;1266;24761;-74
2024/01/02 12:21:10;;;;;;;5.90;2.10;;;;;;;5.83;80.26;97778.48;228313;1267;25711;-75
2024/01/02 12:26:14;;;;;;;5.50;2.20;;;;;;;5.81;80.89;97772.46;225999;1266;23095;-74
2024/01/02 12:31:32;;;;;;;7.70;2.00;;;;;;;5.81;80.67;97764.24;226001;1262;22548;-75
2024/01/02 12:36:43;;;;;;;6.30;2.10;;;;;;;5.82;80.80;97751.27;225833;1250;26140;-75
2024/01/02 12:41:52;;;;;;;5.60;1.50;;;;;;;5.82;81.23;97735.11;225876;1254;22561;-75
2024/01/02 12:47:02;;;;;;;3.70;1.40;;;;;;;5.82;80.48;97716.31;226028;1260;22548;-75
2024/01/02 12:52:12;;;;;;;4.90;2.00;;;;;;;5.83;80.76;97715.35;226269;1266;22540;-74
2024/01/02 12:57:14;;;;;;;5.10;2.00;;;;;;;5.83;80.85;97709.48;226213;1266;22495;-76
2024/01/02 13:02:17;;;;;;;4.60;2.30;;;;;;;5.86;80.67;97707.48;226215;1267;22533;-74
2024/01/02 13:07:19;;;;;;;6.90;2.50;;;;;;;5.85;80.77;97696.39;226225;1266;22551;-74
2024/01/02 13:12:23;;;;;;;6.30;2.30;;;;;;;5.76;80.52;97684.85;226216;1267;22539;-74
2024/01/02 13:17:28;;;;;;;6.60;2.60;;;;;;;5.65;80.30;97685.45;226188;1272;22551;-75
2024/01/02 13:22:31;;;;;;;6.20;2.70;;;;;;;5.59;80.92;97672.59;226159;1269;24222;-74
2024/01/02 13:27:33;;;;;;;6.90;3.10;;;;;;;5.52;80.78;97665.96;226187;1267;22543;-76
2024/01/02 13:32:36;;;;;;;7.80;3.00;;;;;;;5.44;80.99;97658.88;226130;1267;22533;-74
2024/01/02 13:37:39;;;;;;;7.50;3.40;;;;;;;5.40;80.99;97648.52;226192;1250;22934;-75
2024/01/02 13:42:41;;;;;;;7.40;3.40;;;;;;;5.37;81.02;97631.58;226187;1251;22638;-75
2024/01/02 13:47:44;;;;;;;6.80;3.10;;;;;;;5.35;81.01;97624.21;226223;1267;22546;-74
2024/01/02 13:52:46;;;;;;;8.10;2.90;;;;;;;5.31;80.95;97630.07;226082;1253;22566;-76
2024/01/02 13:57:48;;;;;;;8.40;3.70;;;;;;;5.27;81.34;97637.02;226265;1270;22544;-76
2024/01/02 14:02:55;;;;;;;7.60;3.70;;;;;;;5.24;81.70;97631.98;226161;1270;22603;-76
2024/01/02 14:07:58;;;;;;;8.40;6.00;;;;;;;5.19;81.52;97622.70;226206;1266;22563;-76
2024/01/02 14:13:00;;;;;;;7.90;2.90;;;;;;;5.16;81.81;97620.34;225848;1250;22672;-73
2024/01/02 14:18:03;;;;;;;6.90;3.00;;;;;;;5.12;81.63;97614.19;225962;1253;22613;-73
2024/01/02 14:23:24;;;;;;;9.40;4.50;;;;;;;5.09;82.01;97597.27;226148;1254;22544;-73
2024/01/02 14:28:26;;;;;;;9.20;4.20;;;;;;;5.07;82.20;97592.77;226191;1254;22551;-72
2024/01/02 14:33:52;;;;;;;8.10;4.10;;;;;;;5.06;82.59;97584.51;226010;1250;22554;-72
2024/01/02 14:39:05;;;;;;;11.10;5.60;;;;;;;5.06;83.00;97577.05;226012;1266;22657;-74
2024/01/02 14:44:33;;;;;;;10.80;4.80;;;;;;;5.05;82.67;97558.20;226070;1266;22557;-73
2024/01/02 14:49:37;;;;;;;11.70;5.70;;;;;;;5.01;82.48;97557.08;226065;1263;22553;-78
2024/01/02 14:55:03;;;;;;;12.50;5.40;;;;;;;4.97;82.33;97552.48;226162;1266;22478;-74
2024/01/02 15:00:09;;;;;;;8.70;3.90;;;;;;;4.93;82.63;97542.92;226021;1266;22701;-75
2024/01/02 15:05:26;;;;;;;7.90;3.80;;;;;;;4.91;82.39;97525.98;225932;1269;22665;-75
2024/01/02 15:10:31;;;;;;;8.70;4.20;;;;;;;4.86;82.54;97517.77;225916;1273;22567;-76
2024/01/02 15:15:40;;;;;;;8.60;4.40;;;;;;;4.85;82.37;97513.80;226091;1272;22784;-75
2024/01/02 15:21:00;;;;;;;8.20;3.60;;;;;;;4.82;82.83;97509.54;226189;1269;22641;-76
2024/01/02 15:26:14;;;;;;;;;;;;;;;4.81;83.01;97506.02;226392;1272;25280;-75
2024/01/02 15:31:24;;;;;;;8.70;3.70;;;;;;;4.80;83.18;97496.19;226487;1270;22576;-74
2024/01/02 15:36:39;;;;;;;6.10;3.50;;;;;;;4.78;83.28;97496.45;226559;1269;23306;-75
2024/01/02 15:41:55;;;;;;;9.00;4.30;;;;;;;4.77;83.09;97492.39;226546;1272;24564;-73
2024/01/02 15:47:13;;;;;;;9.90;4.50;;;;;;;4.75;83.23;97475.16;226633;1272;23063;-74
2024/01/02 15:52:21;;;;;;;8.20;4.40;;;;;;;4.73;83.24;97464.44;226516;1263;22554;-74
2024/01/02 15:57:24;;;;;;;9.70;4.90;;;;;;;4.73;83.10;97456.39;226455;1272;22562;-75
2024/01/02 16:03:11;;;;;;;7.80;4.70;;;;;;;4.73;83.47;97443.75;226408;1273;22535;-75
2024/01/02 16:08:40;;;;;;;8.80;4.40;;;;;;;4.73;83.49;97430.67;226554;1266;22540;-76
2024/01/02 16:14:07;;;;;;;6.80;4.30;;;;;;;4.72;83.05;97422.05;226531;1269;22767;-75
2024/01/02 16:19:46;;;;;;;11.10;5.10;;;;;;;4.70;83.03;97414.38;226450;1273;22566;-75
2024/01/02 16:25:26;;;;;;;9.50;4.80;;;;;;;4.69;83.19;97417.17;226464;1269;22587;-75
2024/01/02 16:31:02;;;;;;;9.80;5.10;;;;;;;4.70;83.11;97407.77;226459;1273;22783;-75
2024/01/02 16:36:16;;;;;;;7.50;4.20;;;;;;;4.72;83.17;97394.88;226390;1274;22591;-74
2024/01/02 16:41:22;;;;;;;8.00;3.70;;;;;;;4.77;83.10;97392.66;226517;1273;22605;-74
2024/01/02 16:46:27;;;;;;;4.70;3.10;;;;;;;4.82;83.28;97385.27;226653;1272;22558;-75
2024/01/02 16:51:31;;;;;;;6.20;3.30;;;;;;;4.88;83.34;97387.15;226485;1272;22777;-74
2024/01/02 16:56:35;;;;;;;6.90;3.40;;;;;;;4.92;83.18;97381.13;226388;1273;22532;-74
2024/01/02 17:01:38;;;;;;;4.80;2.90;;;;;;;4.97;83.00;97387.78;226375;1274;22541;-75
2024/01/02 17:06:41;;;;;;;4.80;2.50;;;;;;;5.01;82.88;97380.02;226505;1272;22548;-75
2024/01/02 17:11:44;;;;;;;4.50;2.60;;;;;;;5.02;82.81;97378.39;226509;1272;22543;-75
2024/01/02 17:16:48;;;;;;;4.80;3.00;;;;;;;5.05;82.89;97369.02;226484;1272;22555;-74
2024/01/02 17:21:51;;;;;;;5.10;2.90;;;;;;;5.05;82.77;97362.48;226354;1274;22674;-76
2024/01/02 17:26:56;;;;;;;4.60;2.70;;;;;;;5.05;83.00;97353.28;226581;1269;22542;-77
2024/01/02 17:31:59;;;;;;;4.60;3.10;;;;;;;5.05;82.51;97340.98;226525;1274;25347;-77
2024/01/02 17:37:05;;;;;;;5.80;3.60;;;;;;;5.06;82.98;97344.54;226612;1271;25433;-75
2024/01/02 17:42:07;;;;;;;6.40;3.00;;;;;;;5.06;82.91;97338.10;226664;1274;22551;-76
2024/01/02 17:47:10;;;;;;;6.00;3.50;;;;;;;5.07;82.45;97335.25;226536;1271;25468;-75
2024/01/02 17:52:16;;;;;;;5.70;3.30;;;;;;;5.06;82.92;97326.30;226451;1273;23008;-75
2024/01/02 17:57:23;;;;;;;4.70;3.10;;;;;;;5.04;82.53;97320.05;226383;1272;22586;-74
2024/01/02 18:02:40;;;;;;;4.40;3.00;;;;;;;5.02;82.66;97314.21;226364;1274;22549;-76
2024/01/02 18:08:06;;;;;;;6.70;4.20;;;;;;;4.99;82.99;97307.21;226451;1274;22550;-76
2024/01/02 18:13:13;;;;;;;5.80;3.50;;;;;;;4.96;83.23;97299.70;226471;1272;22582;-74
2024/01/02 18:18:53;;;;;;;5.10;3.40;;;;;;;4.93;83.33;97292.05;226434;1272;22555;-75
2024/01/02 18:23:58;;;;;;;4.70;3.00;;;;;;;4.91;83.45;97285.39;226376;1260;22571;-75
2024/01/02 18:29:30;;;;;;;5.80;3.30;;;;;;;4.86;83.68;97274.17;226607;1259;22583;-76
2024/01/02 18:34:58;;;;;;;6.90;3.50;;;;;;;4.79;84.12;97266.41;226385;1269;22569;-75
2024/01/02 18:40:07;;;;;;;4.70;3.60;;;;;;;4.76;84.34;97256.52;226333;1274;22543;-75
2024/01/02 18:45:39;;;;;;;8.60;4.40;;;;;;;4.73;84.74;97248.55;226375;1272;25264;-76
2024/01/02 18:50:49;;;;;;;9.10;4.90;;;;;;;4.69;84.78;97238.65;226467;1273;23280;-75
2024/01/02 18:55:56;;;;;;;7.80;4.90;;;;;;;4.63;84.97;97230.46;226368;1272;26001;-74
2024/01/02 19:01:19;;;;;;;9.00;5.40;;;;;;;4.60;84.91;97225.41;226340;1274;22637;-74
2024/01/02 19:06:27;;;;;;;6.60;4.90;;;;;;;4.57;85.73;97215.79;226519;1269;22537;-76
2024/01/02 19:11:34;;;;;;;7.90;5.20;;;;;;;4.56;85.53;97208.69;226283;1273;25243;-76
2024/01/02 19:16:36;;;;;;;7.60;5.10;;;;;;;4.53;86.02;97206.70;226300;1274;22532;-76
2024/01/02 19:21:39;;;;;;;9.00;6.20;;;;;;;4.54;86.19;97207.50;226513;1270;22583;-74
2024/01/02 19:26:43;;;;;;;8.70;5.70;;;;;;;4.54;86.41;97206.34;226403;1272;22536;-76
2024/01/02 19:31:46;;;;;;;8.30;5.10;;;;;;;4.53;86.58;97204.56;226508;1272;22949;-73
2024/01/02 19:36:50;;;;;;;6.10;4.40;;;;;;;4.54;86.35;97200.83;226365;1274;24244;-77
2024/01/02 19:41:53;;;;;;;6.00;4.40;;;;;;;4.54;86.59;97196.12;226367;1273;22552;-76
2024/01/02 19:46:58;;;;;;;7.20;4.80;;;;;;;4.54;86.88;97188.64;226363;1272;22654;-75
2024/01/02 19:52:03;;;;;;;6.60;4.50;;;;;;;4.55;86.70;97181.52;226521;1274;22553;-75
2024/01/02 19:57:05;;;;;;;6.00;4.20;;;;;;;4.55;86.97;97185.42;226356;1269;22547;-75
2024/01/02 20:02:12;;;;;;;5.20;4.40;;;;;;;4.52;86.99;97174.05;226426;1274;23140;-76
2024/01/02 20:07:28;;;;;;;8.50;5.00;;;;;;;4.50;87.24;97166.46;226532;1272;23846;-75
2024/01/02 20:12:37;;;;;;;7.10;5.30;;;;;;;4.50;87.31;97158.66;226410;1267;22581;-76
2024/01/02 20:17:42;;;;;;;8.10;5.40;;;;;;;4.48;87.60;97154.17;226440;1269;22566;-74
2024/01/02 20:22:46;;;;;;;7.50;5.20;;;;;;;4.47;87.74;97145.27;226381;1272;22626;-73
2024/01/02 20:27:51;;;;;;;8.30;5.50;;;;;;;4.46;87.68;97140.84;226525;1259;25255;-75
2024/01/02 20:33:04;;;;;;;7.60;6.00;;;;;;;4.45;87.83;97135.55;226365;1272;24442;-76
2024/01/02 20:38:23;;;;;;;8.90;5.70;;;;;;;4.45;87.94;97131.77;226560;1271;22566;-75
2024/01/02 20:43:36;;;;;;;9.30;5.80;;;;;;;4.44;88.25;97128.45;226336;1274;22537;-76
2024/01/02 20:48:38;;;;;;;7.20;6.00;;;;;;;4.43;88.20;97110.52;226498;1272;22559;-76
2024/01/02 20:53:44;;;;;;;6.80;5.20;;;;;;;4.41;88.54;97102.90;226417;1274;22600;-75
2024/01/02 20:58:51;;;;;;;7.80;5.70;;;;;;;4.38;88.70;97088.42;226390;1269;24297;-75
2024/01/02 21:04:04;;;;;;;8.70;6.00;;;;;;;4.35;89.08;97092.87;226457;1274;22574;-76
2024/01/02 21:09:43;;;;;;;7.30;6.00;;;;;;;4.37;88.75;97094.38;226458;1251;23147;-74
2024/01/02 21:14:48;;;;;;;8.50;6.00;;;;;;;4.39;88.90;97093.30;226415;1274;22541;-75
2024/01/02 21:19:51;;;;;;;7.30;5.90;;;;;;;4.39;89.45;97086.10;226434;1274;22540;-75
2024/01/02 21:24:54;;;;;;;10.60;6.00;;;;;;;4.38;89.50;97083.64;226474;1274;22540;-74
2024/01/02 21:29:56;;;;;;;8.30;6.00;;;;;;;4.37;89.56;97080.48;226352;1274;22812;-74
2024/01/02 21:34:58;;;;;;;5.30;4.50;;;;;;;4.36;89.88;97076.34;226292;1274;22539;-75
2024/01/02 21:40:10;;;;;;;7.10;5.40;;;;;;;4.34;89.74;97074.64;226445;1274;22578;-76
2024/01/02 21:45:38;;;;;;;6.60;5.30;;;;;;;4.34;90.14;97073.66;226426;1272;25392;-75
2024/01/02 21:50:46;;;;;;;7.60;5.80;;;;;;;4.32;90.23;97070.44;226397;1269;22551;-74
2024/01/02 21:55:49;;;;;;;7.20;4.60;;;;;;;4.30;91.04;97065.93;226523;1274;22556;-75
2024/01/02 22:01:10;;;;;;;6.80;5.40;;;;;;;4.29;90.94;97063.80;226287;1274;25249;-75
2024/01/02 22:06:20;;;;;;;9.30;5.40;;;;;;;4.31;91.41;97056.80;226413;1274;22533;-75
2024/01/02 22:12:01;;;;;;;5.80;4.40;;;;;;;4.32;91.31;97055.84;226449;1273;22573;-76
2024/01/02 22:17:29;;;;;;;8.00;4.60;;;;;;;4.32;91.14;97049.29;226552;1272;22544;-75
2024/01/02 22:22:34;;;;;;;6.70;5.10;;;;;;;4.34;90.97;97048.09;226524;1272;23026;-74
2024/01/02 22:27:40;;;;;;;6.80;4.60;;;;;;;4.35;91.05;97041.42;226510;1265;22543;-75
2024/01/02 22:32:43;;;;;;;7.60;5.20;;;;;;;4.36;91.34;97031.41;226381;1272;22668;-74
2024/01/02 22:37:46;;;;;;;7.50;5.10;;;;;;;4.37;91.25;97028.64;226422;1266;23148;-76
2024/01/02 22:42:48;;;;;;;8.40;5.80;;;;;;;4.37;91.20;97017.80;226725;1273;22898;-75
2024/01/02 22:47:51;;;;;;;9.10;6.20;;;;;;;4.38;91.37;97006.61;226311;1274;25860;-75
2024/01/02 22:52:55;;;;;;;9.50;6.80;;;;;;;4.39;91.36;96993.27;226397;1273;22555;-74
2024/01/02 22:57:57;;;;;;;8.40;6.00;;;;;;;4.40;91.39;96984.70;226436;1274;22535;-76
2024/01/02 23:03:00;;;;;;;10.90;7.30;;;;;;;4.40;91.43;96973.85;226485;1273;22559;-74
2024/01/02 23:08:09;;;;;;;9.50;6.70;;;;;;;4.40;91.33;96968.55;226490;1272;22573;-75
2024/01/02 23:13:42;;;;;;;9.70;7.30;;;;;;;4.39;91.37;96955.23;226463;1274;22543;-74
2024/01/02 23:19:10;;;;;;;7.00;5.50;;;;;;;4.40;91.38;96950.00;226442;1274;22540;-74
2024/01/02 23:24:13;;;;;;;8.40;6.60;;;;;;;4.41;91.58;96936.50;226533;1273;22593;-75
2024/01/02 23:29:28;;;;;;;9.80;6.20;;;;;;;4.41;91.43;96926.84;226357;1272;132973;-76
2024/01/02 23:34:53;;;;;;;9.40;7.10;;;;;;;4.42;91.49;96921.70;226440;1270;22560;-74
2024/01/02 23:40:11;;;;;;;8.30;5.70;;;;;;;4.43;91.28;96910.81;226510;1273;23005;-74
2024/01/02 23:45:21;;;;;;;11.40;7.60;;;;;;;4.43;91.11;96899.27;226464;1274;22676;-75
2024/01/02 23:50:26;;;;;;;10.50;7.00;;;;;;;4.44;91.11;96893.20;226502;1263;22684;-74
2024/01/02 23:55:29;;;;;;;9.40;7.00;;;;;;;4.44;91.31;96884.50;226414;1269;22592;-75
